Portada
METAR-TAF:

METAR-TAF

Aeroports :

Rajahmundry, Índia

latitud: 17-06-37N, longitud: 81-49-06E, altitud: 46 m

Observació

L'informe es va fer fa 1 hora i 55 minuts, a les 18:00 UTC
Vent calma
Temperatura 25°C
Humitat 79%
Pressió 1013 hPa
Visibilitat: 6000 m

METAR: VORY 211800Z 00000KT 6000 NSC 25/21 Q1013 NOSIG

Hora: 01:25 (19:55 UTC)

Pronòstic

L'informe es va fer fa 8 hores i 55 minuts, a les 11:00 UTC
Pronòstic vàlid del 21 a les 12 UTC al 21 a les 21 UTC
Vent 8 kt del Sud
Visibilitat: 6000 m
Escasses núvols a una alçada de 1500 ft
Núvols disperses a una alçada de 10000 ft

TAF: VORY 211100Z 2112/2121 18008KT 6000 FEW015 SCT100

Observacions i pronòstics meteorològics de més de 4000 aeroports (METAR i TAF).

Les estacions disponibles són els punts grocs i vermells al mapa.

Posi el ratolí al punt desitjat per veure el nom de l'estació.

Feu clic per veure les observacions i els pronòstics meteorològics.

Per canviar el mapa: feu clic els botons verds amb una creu de color negre per apropar; al botó verd amb un guió per allunyar la imatge; o en les fletxes verdes per a mapes adjacents.


METAR-TAF: